Time;durP1;ratioP1;P1;durP2;ratioP2;P2;SDS_P1;SDS_P2;PMS_P1;PMS_P2;Temp;Humidity;BMP_temperature;BMP_pressure;BME280_temperature;BME280_humidity;BME280_pressure;Samples;Min_cycle;Max_cycle;Signal;HPM_P1;HPM_P2
2024/01/11 00:01:17;;;;;;;16.74;10.46;;;;;;;-7.63;100.00;103145.44;1047347;28;20091;-49
2024/01/11 00:02:36;;;;;;;26.70;10.74;;;;;;;-7.48;100.00;103151.91;1047896;28;20102;-44
2024/01/11 00:03:29;;;;;;;18.40;10.16;;;;;;;-7.49;100.00;103152.81;1048996;28;20037;-47
2024/01/11 00:04:16;;;;;;;19.92;10.34;;;;;;;-7.39;100.00;103156.00;1040506;28;20518;-47
2024/01/11 00:05:10;;;;;;;22.80;11.84;;;;;;;-7.33;100.00;103158.41;1020639;29;20126;-44
2024/01/11 00:06:12;;;;;;;21.04;10.84;;;;;;;-7.42;100.00;103156.06;1040196;28;20500;-45
2024/01/11 00:07:05;;;;;;;15.44;9.84;;;;;;;-7.44;100.00;103150.94;1038986;28;20050;-48
2024/01/11 00:07:52;;;;;;;21.94;11.68;;;;;;;-7.31;100.00;103162.66;1027507;28;20047;-44
2024/01/11 00:08:41;;;;;;;21.06;10.74;;;;;;;-7.40;100.00;103157.72;1033398;28;20128;-50
2024/01/11 00:09:41;;;;;;;22.50;11.02;;;;;;;-7.36;100.00;103158.50;1035940;28;20663;-44
2024/01/11 00:10:34;;;;;;;20.88;11.82;;;;;;;-7.36;100.00;103158.50;1040924;28;20396;-45
2024/01/11 00:11:21;;;;;;;19.14;10.56;;;;;;;-7.37;100.00;103157.66;1032991;28;20039;-44
2024/01/11 00:12:20;;;;;;;19.88;11.48;;;;;;;-7.34;100.00;103162.75;1026831;28;20054;-48
2024/01/11 00:13:09;;;;;;;20.88;11.92;;;;;;;-7.62;100.00;103161.81;1028365;28;20055;-48
2024/01/11 00:14:15;;;;;;;19.62;10.06;;;;;;;-7.44;100.00;103155.25;1034864;28;20041;-48
2024/01/11 00:15:17;;;;;;;28.12;12.32;;;;;;;-7.36;100.00;103158.50;1032853;28;20042;-47
2024/01/11 00:16:22;;;;;;;20.52;10.10;;;;;;;-7.12;100.00;103151.75;1030737;28;20101;-44
2024/01/11 00:17:08;;;;;;;21.02;12.42;;;;;;;-7.26;100.00;103150.44;1026154;28;20047;-50
2024/01/11 00:18:20;;;;;;;29.08;12.66;;;;;;;-7.19;100.00;103156.25;1024350;29;20043;-44
2024/01/11 00:19:05;;;;;;;19.06;10.98;;;;;;;-7.29;100.00;103150.50;1024206;29;20067;-44
2024/01/11 00:20:00;;;;;;;18.94;11.34;;;;;;;-7.27;100.00;103148.72;1024312;28;20078;-44
2024/01/11 00:20:50;;;;;;;18.24;12.00;;;;;;;-7.24;100.00;103148.63;1023018;28;20666;-48
2024/01/11 00:21:49;;;;;;;20.04;11.16;;;;;;;-7.29;100.00;103150.50;1024449;28;20043;-48
2024/01/11 00:22:48;;;;;;;17.74;10.46;;;;;;;-7.31;100.00;103152.31;1033728;28;20057;-44
2024/01/11 00:23:56;;;;;;;18.18;10.88;;;;;;;-7.43;100.00;103152.63;1033303;28;20256;-45
2024/01/11 00:24:44;;;;;;;18.92;11.45;;;;;;;-7.40;100.00;103152.53;1033015;28;20057;-48
2024/01/11 00:26:28;;;;;;;17.06;10.12;;;;;;;-7.40;100.00;103157.72;1032862;28;20096;-49
2024/01/11 00:27:30;;;;;;;16.94;10.04;;;;;;;-7.34;100.00;103157.56;1036487;28;20042;-44
2024/01/11 00:28:21;;;;;;;23.48;12.38;;;;;;;-7.48;100.00;103154.50;1037380;28;20053;-47
2024/01/11 00:29:07;;;;;;;19.40;12.12;;;;;;;-7.40;100.00;103159.47;1037313;28;20128;-49
2024/01/11 00:30:12;;;;;;;19.00;11.00;;;;;;;-7.39;100.00;103154.28;1028883;28;20039;-45
2024/01/11 00:31:21;;;;;;;17.62;10.44;;;;;;;-7.43;100.00;103157.81;1026932;28;20053;-48
2024/01/11 00:32:20;;;;;;;19.86;11.30;;;;;;;-7.51;100.00;103154.59;1023750;28;20067;-49
2024/01/11 00:33:38;;;;;;;22.12;12.10;;;;;;;-7.61;100.00;103154.00;1029331;28;20047;-46
2024/01/11 00:34:40;;;;;;;21.02;11.50;;;;;;;-7.46;100.00;103152.72;1034841;28;20038;-43
2024/01/11 00:35:23;;;;;;;21.14;12.30;;;;;;;-7.42;100.00;103158.66;1026384;28;20039;-45
2024/01/11 00:36:28;;;;;;;17.90;10.48;;;;;;;-7.44;100.00;103155.25;1019105;28;20084;-44
2024/01/11 00:37:50;;;;;;;16.72;10.02;;;;;;;-7.44;100.00;103156.13;1031055;28;20191;-47
2024/01/11 00:39:09;;;;;;;18.16;11.24;;;;;;;-7.44;100.00;103161.28;1026356;28;20044;-49
2024/01/11 00:40:12;;;;;;;18.04;10.70;;;;;;;-7.53;100.00;103159.81;1033375;28;20054;-42
2024/01/11 00:40:55;;;;;;;19.74;10.82;;;;;;;-7.43;100.00;103157.81;1026718;28;20051;-50
2024/01/11 00:41:51;;;;;;;20.36;10.56;;;;;;;-7.43;100.00;103157.81;1030891;28;20501;-48
2024/01/11 00:42:55;;;;;;;17.76;9.92;;;;;;;-7.44;100.00;103161.28;1033893;28;20420;-48
2024/01/11 00:44:32;;;;;;;23.92;10.00;;;;;;;-7.39;100.00;103158.59;1039675;28;20084;-44
2024/01/11 00:45:36;;;;;;;21.46;10.42;;;;;;;-7.47;100.00;103158.78;1039829;28;20037;-45
2024/01/11 00:46:48;;;;;;;16.67;9.32;;;;;;;-7.38;100.00;103160.28;1031386;28;20310;-49
2024/01/11 00:47:34;;;;;;;19.98;11.43;;;;;;;-7.42;100.00;103154.34;1024076;28;20627;-42
2024/01/11 00:48:50;;;;;;;19.68;11.76;;;;;;;-7.42;100.00;103149.16;1031890;28;20123;-48
2024/01/11 00:49:46;;;;;;;22.90;11.08;;;;;;;-7.47;100.00;103151.88;1035172;28;20038;-47
2024/01/11 00:50:45;;;;;;;22.44;11.86;;;;;;;-7.37;100.00;103152.47;1034337;28;20042;-48
2024/01/11 00:51:47;;;;;;;21.16;9.88;;;;;;;-7.37;100.00;103156.81;1025440;28;20061;-48
2024/01/11 00:53:05;;;;;;;15.70;9.06;;;;;;;-7.43;100.00;103147.47;1030248;28;20059;-45
2024/01/11 00:54:06;;;;;;;16.80;9.84;;;;;;;-7.51;100.00;103154.59;1031147;28;20177;-45
2024/01/11 00:55:02;;;;;;;14.20;9.82;;;;;;;-7.60;100.00;103145.38;1036258;28;20046;-48
2024/01/11 00:55:57;;;;;;;33.38;11.74;;;;;;;-7.66;100.00;103142.09;1029809;28;20046;-45
2024/01/11 00:58:08;;;;;;;24.78;10.94;;;;;;;-7.51;100.00;103145.09;1030484;28;20073;-46
2024/01/11 00:59:10;;;;;;;16.84;10.46;;;;;;;-7.53;100.00;103146.88;1029257;28;20054;-48
2024/01/11 01:00:03;;;;;;;19.10;10.30;;;;;;;-7.54;100.00;103154.69;1031992;28;20556;-48
2024/01/11 01:00:52;;;;;;;19.48;11.46;;;;;;;-7.58;100.00;103148.75;1028749;28;20494;-48
2024/01/11 01:02:21;;;;;;;21.86;11.76;;;;;;;-7.60;100.00;103149.69;1018372;28;20098;-45
2024/01/11 01:03:33;;;;;;;19.80;10.66;;;;;;;-7.61;100.00;103148.00;1035398;28;20512;-44
2024/01/11 01:04:34;;;;;;;22.92;10.86;;;;;;;-7.61;100.00;103155.75;1033808;28;20039;-45
2024/01/11 01:05:57;;;;;;;20.72;10.10;;;;;;;-7.59;100.00;103160.00;1037364;28;20057;-46
2024/01/11 01:07:13;;;;;;;19.04;10.76;;;;;;;-7.55;100.00;103158.16;1034513;28;20108;-47
2024/01/11 01:08:47;;;;;;;21.26;10.60;;;;;;;-7.55;100.00;103163.34;1029847;28;20045;-44
2024/01/11 01:09:58;;;;;;;16.92;9.08;;;;;;;-7.55;100.00;103164.19;1030151;28;20627;-45
2024/01/11 01:10:45;;;;;;;17.06;9.72;;;;;;;-7.63;100.00;103170.47;1030512;28;20536;-48
2024/01/11 01:11:22;;;;;;;21.68;10.56;;;;;;;-7.83;100.00;103166.66;1042145;28;20060;-45
2024/01/11 01:12:29;;;;;;;;;;;;;;;;;;;;;
2024/01/11 01:13:18;;;;;;;18.10;10.72;;;;;;;-8.05;100.00;103169.84;1040779;28;20399;-48
2024/01/11 01:14:14;;;;;;;19.22;10.28;;;;;;;-7.93;100.00;103167.81;1039434;28;20037;-44
2024/01/11 01:14:59;;;;;;;17.96;11.50;;;;;;;-7.75;100.00;103170.78;1031160;28;20049;-42
2024/01/11 01:16:20;;;;;;;17.70;10.36;;;;;;;-7.73;100.00;103174.19;1036287;28;20066;-48
2024/01/11 01:17:18;;;;;;;;;;;;;;;-7.71;100.00;103177.56;1039517;28;20046;-45
2024/01/11 01:18:03;;;;;;;17.27;9.35;;;;;;;-7.72;100.00;103171.56;1043026;28;19925;-45
2024/01/11 01:18:49;;;;;;;21.36;11.48;;;;;;;-7.73;100.00;103169.84;1038324;28;20065;-46
2024/01/11 01:19:46;;;;;;;20.42;9.98;;;;;;;-7.74;100.00;103167.31;1033342;28;20042;-44
2024/01/11 01:20:59;;;;;;;17.02;9.82;;;;;;;-7.69;100.00;103168.03;1037715;28;20076;-48
2024/01/11 01:21:48;;;;;;;21.68;11.62;;;;;;;-7.72;100.00;103168.13;1041139;28;20046;-44
2024/01/11 01:22:42;;;;;;;19.14;10.42;;;;;;;-7.71;100.00;103170.66;1046774;28;20044;-44
2024/01/11 01:23:51;;;;;;;23.36;12.64;;;;;;;-7.71;100.00;103172.41;1050612;28;20028;-46
2024/01/11 01:24:34;;;;;;;19.86;10.78;;;;;;;-7.73;100.00;103176.75;1048901;28;20052;-47
2024/01/11 01:25:38;;;;;;;27.68;12.58;;;;;;;-7.72;100.00;103181.06;1045593;28;20043;-45
2024/01/11 01:26:30;;;;;;;25.62;13.42;;;;;;;-7.71;100.00;103178.41;1035795;28;20097;-48
2024/01/11 01:28:34;;;;;;;19.34;11.56;;;;;;;-7.71;100.00;103177.56;1040048;28;20038;-45
2024/01/11 01:29:17;;;;;;;19.68;10.74;;;;;;;-7.74;100.00;103167.31;1042542;28;20053;-44
2024/01/11 01:29:56;;;;;;;18.00;10.64;;;;;;;-7.64;100.00;103169.63;1037093;28;20048;-46
2024/01/11 01:30:51;;;;;;;21.68;11.10;;;;;;;-7.76;100.00;103163.91;1030081;28;20043;-44
2024/01/11 01:31:38;;;;;;;21.80;11.78;;;;;;;-7.70;100.00;103177.53;1032743;28;20046;-45
2024/01/11 01:32:27;;;;;;;20.08;11.56;;;;;;;-7.83;100.00;103168.41;1031969;28;20047;-44
2024/01/11 01:33:33;;;;;;;19.12;10.20;;;;;;;-7.95;100.00;103166.97;1037041;28;20080;-46
2024/01/11 01:34:59;;;;;;;23.26;11.40;;;;;;;-7.83;100.00;103171.00;1044851;28;20041;-45
2024/01/11 01:35:51;;;;;;;21.84;12.36;;;;;;;-7.81;100.00;103169.22;1042650;28;20040;-48
2024/01/11 01:36:43;;;;;;;23.08;12.38;;;;;;;-7.81;100.00;103166.63;1040314;28;20060;-48
2024/01/11 01:37:36;;;;;;;18.14;10.46;;;;;;;-7.75;100.00;103170.78;1035243;28;20041;-48
2024/01/11 01:38:42;;;;;;;26.04;11.26;;;;;;;-7.76;100.00;103175.13;1031968;28;20046;-45
2024/01/11 01:39:50;;;;;;;;;;;;;;;-7.83;100.00;103171.00;1033845;28;20079;-45
2024/01/11 01:41:00;;;;;;;20.12;10.62;;;;;;;-7.82;100.00;103167.53;1040092;28;19953;-46
2024/01/11 01:41:55;;;;;;;22.98;12.36;;;;;;;-7.87;100.00;103172.81;1039099;28;20484;-48
2024/01/11 01:44:41;;;;;;;16.70;10.40;;;;;;;-7.82;100.00;103181.31;1040377;28;20427;-48
2024/01/11 01:47:09;;;;;;;16.36;10.10;;;;;;;-7.81;100.00;103188.16;1044315;28;20178;-44
2024/01/11 01:48:27;;;;;;;20.76;10.24;;;;;;;-7.88;100.00;103181.47;1031605;28;20253;-48
2024/01/11 01:49:51;;;;;;;;;;;;;;;;;;;;;
2024/01/11 01:50:50;;;;;;;17.90;10.66;;;;;;;-7.79;100.00;103180.38;1048712;28;20064;-44
2024/01/11 01:51:35;;;;;;;15.88;10.05;;;;;;;-7.71;100.00;103181.00;1040150;28;20546;-45
2024/01/11 01:52:42;;;;;;;17.82;9.88;;;;;;;-7.72;100.00;103175.88;1035100;28;20054;-48
2024/01/11 01:53:53;;;;;;;18.14;10.84;;;;;;;-7.70;100.00;103174.09;1045061;28;20041;-46
2024/01/11 01:55:18;;;;;;;18.68;11.14;;;;;;;-7.74;100.00;103173.34;1046236;28;20041;-45
2024/01/11 01:56:11;;;;;;;18.82;10.64;;;;;;;-7.74;100.00;103177.66;1040149;28;20072;-45
2024/01/11 01:56:54;;;;;;;22.14;11.30;;;;;;;-7.70;100.00;103174.09;1039791;28;20593;-48
2024/01/11 01:58:21;;;;;;;20.82;11.84;;;;;;;-7.70;100.00;103176.69;1040508;28;20103;-44
2024/01/11 01:59:24;;;;;;;20.76;11.02;;;;;;;-7.81;100.00;103182.16;1044086;28;20053;-45
2024/01/11 02:00:08;;;;;;;20.30;10.86;;;;;;;-7.78;100.00;103177.75;1043853;28;20060;-44
2024/01/11 02:01:35;;;;;;;24.26;10.34;;;;;;;-7.86;100.00;103176.25;1043313;28;20040;-44
2024/01/11 02:03:14;;;;;;;22.48;10.25;;;;;;;-7.80;100.00;103183.84;1042935;28;20548;-49
2024/01/11 02:04:08;;;;;;;20.92;11.70;;;;;;;-8.14;100.00;103189.03;1043252;28;20538;-45
2024/01/11 02:05:18;;;;;;;22.76;10.08;;;;;;;-8.00;100.00;103191.25;1042679;28;20041;-44
2024/01/11 02:07:37;;;;;;;16.72;10.84;;;;;;;-8.28;100.00;103185.94;1038349;28;20050;-48
2024/01/11 02:08:32;;;;;;;16.42;10.44;;;;;;;-8.25;100.00;103191.03;1041510;28;20038;-44
2024/01/11 02:09:30;;;;;;;18.74;11.14;;;;;;;-8.03;100.00;103194.78;1040651;28;20052;-47
2024/01/11 02:10:42;;;;;;;24.98;11.74;;;;;;;-7.81;100.00;103187.31;1036287;28;20449;-48
2024/01/11 02:11:51;;;;;;;16.34;10.66;;;;;;;-7.73;100.00;103187.13;1035326;28;20053;-46
2024/01/11 02:12:39;;;;;;;22.90;9.66;;;;;;;-7.94;100.00;103193.69;1039608;28;20053;-48
2024/01/11 02:13:36;;;;;;;16.10;10.34;;;;;;;-7.98;100.00;103190.34;1048940;28;20040;-44
2024/01/11 02:14:37;;;;;;;19.80;11.68;;;;;;;-7.96;100.00;103196.31;1036222;28;20035;-44
2024/01/11 02:15:42;;;;;;;20.04;12.42;;;;;;;-8.00;100.00;103181.75;1038448;28;20057;-44
2024/01/11 02:17:02;;;;;;;20.54;10.88;;;;;;;-8.06;100.00;103187.09;1035296;28;20080;-44
2024/01/11 02:18:12;;;;;;;17.88;11.02;;;;;;;-8.01;100.00;103185.25;1035660;28;20050;-44
2024/01/11 02:19:16;;;;;;;21.92;11.14;;;;;;;-8.17;100.00;103189.13;1036433;28;20570;-49
2024/01/11 02:20:25;;;;;;;14.98;10.08;;;;;;;-8.08;100.00;103191.47;1023857;29;20264;-48
2024/01/11 02:21:18;;;;;;;16.82;9.96;;;;;;;-8.05;100.00;103183.63;1036516;28;20137;-47
2024/01/11 02:22:40;;;;;;;24.96;11.08;;;;;;;-8.00;100.00;103189.53;1035280;28;20057;-44
2024/01/11 02:23:25;;;;;;;16.78;9.42;;;;;;;-8.13;100.00;103190.72;1041214;28;20091;-45
2024/01/11 02:24:16;;;;;;;22.20;12.04;;;;;;;-8.08;100.00;103188.88;1032135;28;20039;-47
2024/01/11 02:26:14;;;;;;;20.86;12.22;;;;;;;-8.00;100.00;103184.34;1034440;28;20046;-45
2024/01/11 02:27:16;;;;;;;17.33;9.68;;;;;;;-7.98;100.00;103187.75;1039661;28;20105;-47
2024/01/11 02:28:13;;;;;;;18.32;10.06;;;;;;;-8.03;100.00;103179.25;1041377;28;20045;-44
2024/01/11 02:29:05;;;;;;;16.12;9.50;;;;;;;-8.01;100.00;103179.22;1040515;28;20191;-45
2024/01/11 02:29:45;;;;;;;16.76;10.46;;;;;;;-8.06;100.00;103179.34;1033097;28;20510;-45
2024/01/11 02:30:37;;;;;;;18.62;10.02;;;;;;;-8.02;100.00;103178.38;1036653;28;20098;-47
2024/01/11 02:31:49;;;;;;;19.38;11.16;;;;;;;-7.95;100.00;103173.88;1035397;28;20112;-44
2024/01/11 02:32:38;;;;;;;23.16;11.12;;;;;;;-7.98;100.00;103181.72;1032203;28;20057;-46
2024/01/11 02:33:38;;;;;;;20.20;10.50;;;;;;;-7.92;100.00;103172.09;1026060;29;20095;-45
2024/01/11 02:34:48;;;;;;;16.74;10.50;;;;;;;-7.94;100.00;103171.28;1039964;28;20046;-45
2024/01/11 02:35:43;;;;;;;23.90;10.96;;;;;;;-7.93;100.00;103165.22;1032683;28;20168;-46
2024/01/11 02:36:50;;;;;;;21.12;11.28;;;;;;;-7.97;100.00;103165.31;1035971;28;20065;-44
2024/01/11 02:37:44;;;;;;;20.66;10.66;;;;;;;-7.94;100.00;103165.25;1035010;28;20053;-48
2024/01/11 02:38:53;;;;;;;19.90;10.78;;;;;;;-8.02;100.00;103162.84;1041191;28;20120;-46
2024/01/11 02:39:57;;;;;;;18.40;10.86;;;;;;;-7.95;100.00;103173.88;1047926;28;20208;-44
2024/01/11 02:41:13;;;;;;;20.32;11.30;;;;;;;-8.02;100.00;103175.78;1042125;28;20106;-43
2024/01/11 02:42:18;;;;;;;15.16;9.76;;;;;;;-8.21;100.00;103182.34;1041556;28;20044;-48
2024/01/11 02:43:08;;;;;;;19.78;11.48;;;;;;;-8.20;100.00;103173.69;1044318;28;20105;-45
2024/01/11 02:44:26;;;;;;;20.46;11.02;;;;;;;-8.36;100.00;103174.97;1041988;28;20076;-48
2024/01/11 02:45:32;;;;;;;16.46;8.80;;;;;;;-8.66;100.00;103179.97;1038148;28;20501;-48
2024/01/11 02:46:10;;;;;;;15.98;9.78;;;;;;;-8.76;100.00;103173.31;1035383;28;20052;-49
2024/01/11 02:46:56;;;;;;;20.15;11.30;;;;;;;-8.75;100.00;103175.03;1038391;28;20133;-45
2024/01/11 02:47:41;;;;;;;;;;;;;;;-8.54;100.00;103179.66;1037107;28;20398;-43
2024/01/11 02:48:52;;;;;;;16.96;10.28;;;;;;;-8.44;100.00;103180.31;1041575;28;19924;-43
2024/01/11 02:49:59;;;;;;;17.48;9.56;;;;;;;-8.40;100.00;103189.69;1045371;28;20811;-44
2024/01/11 02:50:50;;;;;;;18.68;10.58;;;;;;;-8.47;100.00;103186.41;1038953;28;20038;-46
2024/01/11 02:51:39;;;;;;;21.33;11.45;;;;;;;-8.38;100.00;103182.75;1033409;28;20050;-44
2024/01/11 02:52:34;;;;;;;24.14;11.54;;;;;;;-8.34;100.00;103186.13;1034380;28;20049;-45
2024/01/11 02:53:35;;;;;;;19.30;9.80;;;;;;;-8.57;100.00;103189.22;1040108;28;20110;-44
2024/01/11 02:54:39;;;;;;;22.73;10.45;;;;;;;-8.94;100.00;103184.91;1040217;28;20038;-48
2024/01/11 02:55:39;;;;;;;21.26;10.08;;;;;;;-8.92;100.00;103187.44;1036867;28;20042;-47
2024/01/11 02:56:27;;;;;;;20.98;10.54;;;;;;;-8.71;100.00;103197.31;1033147;28;20043;-44
2024/01/11 02:57:22;;;;;;;23.28;11.20;;;;;;;-8.70;100.00;103191.25;1040765;28;20273;-49
2024/01/11 02:58:34;;;;;;;17.18;10.06;;;;;;;-8.88;100.00;103186.50;1019697;29;20571;-48
2024/01/11 02:59:54;;;;;;;20.88;11.62;;;;;;;-8.95;100.00;103187.50;1026793;29;20051;-44
2024/01/11 03:01:16;;;;;;;18.72;10.38;;;;;;;-9.07;100.00;103194.63;1023262;29;20043;-43
2024/01/11 03:02:16;;;;;;;19.34;10.12;;;;;;;-9.13;100.00;103194.75;1008027;28;20049;-47
2024/01/11 03:03:14;;;;;;;21.70;11.92;;;;;;;-9.10;100.00;103199.00;1022183;28;20055;-49
2024/01/11 03:04:25;;;;;;;21.82;10.08;;;;;;;-8.97;100.00;103199.59;1017125;29;20055;-44
2024/01/11 03:04:57;;;;;;;26.08;13.40;;;;;;;-8.91;100.00;103191.72;1023056;29;20043;-48
2024/01/11 03:05:29;;;;;;;18.04;12.40;;;;;;;-8.81;100.00;103195.78;1026508;28;20043;-48
2024/01/11 03:06:01;;;;;;;25.34;14.00;;;;;;;-8.75;100.00;103193.09;1031047;28;20086;-47
2024/01/11 03:06:33;;;;;;;23.78;13.26;;;;;;;-8.66;100.00;103189.44;1030451;28;20092;-48
2024/01/11 03:07:04;;;;;;;22.02;12.80;;;;;;;-8.62;100.00;103184.16;1030724;28;20136;-48
2024/01/11 03:07:36;;;;;;;19.78;12.62;;;;;;;-8.58;100.00;103183.22;1031227;28;20061;-44
2024/01/11 03:08:08;;;;;;;22.48;11.92;;;;;;;-8.58;100.00;103183.22;1035259;28;20049;-44
2024/01/11 03:08:39;;;;;;;27.02;13.58;;;;;;;-8.76;100.00;103188.81;1037591;28;20046;-44
2024/01/11 03:09:11;;;;;;;20.98;13.24;;;;;;;-8.78;100.00;103181.06;1039498;28;20503;-44
2024/01/11 03:09:43;;;;;;;25.72;12.22;;;;;;;-8.80;100.00;103182.00;1037961;28;20053;-48
2024/01/11 03:10:14;;;;;;;25.54;13.64;;;;;;;-8.86;100.00;103182.13;1039037;28;20041;-44
2024/01/11 03:10:46;;;;;;;27.62;13.52;;;;;;;-8.81;100.00;103185.47;1038585;28;20503;-44
2024/01/11 03:11:18;;;;;;;29.30;13.94;;;;;;;-8.91;100.00;103179.66;1038948;28;20234;-44
2024/01/11 03:11:49;;;;;;;30.10;13.86;;;;;;;-8.98;100.00;103179.84;1034220;28;20065;-44
2024/01/11 03:12:21;;;;;;;27.98;14.76;;;;;;;-8.95;100.00;103179.75;1035058;28;20169;-44
2024/01/11 03:12:53;;;;;;;27.34;12.92;;;;;;;-8.88;100.00;103183.91;1034921;28;20042;-44
2024/01/11 03:13:25;;;;;;;28.24;13.76;;;;;;;-8.80;100.00;103184.56;1035681;28;20423;-44
2024/01/11 03:13:57;;;;;;;19.82;12.22;;;;;;;-8.72;100.00;103182.69;1037144;28;20054;-44
2024/01/11 03:14:29;;;;;;;27.62;15.02;;;;;;;-8.87;100.00;103181.28;1038978;28;20060;-44
2024/01/11 03:15:00;;;;;;;22.94;13.94;;;;;;;-8.85;100.00;103183.84;1038383;28;20049;-48
2024/01/11 03:15:33;;;;;;;21.54;12.52;;;;;;;-8.74;100.00;103187.03;1039274;28;20045;-48
2024/01/11 03:16:05;;;;;;;22.14;13.18;;;;;;;-8.67;100.00;103188.59;1039032;28;20370;-47
2024/01/11 03:16:37;;;;;;;31.02;13.86;;;;;;;-8.63;100.00;103186.78;1038779;28;20237;-46
2024/01/11 03:17:09;;;;;;;24.64;13.46;;;;;;;-8.54;100.00;103197.75;1038868;28;20049;-47
2024/01/11 03:17:40;;;;;;;22.24;13.30;;;;;;;-8.51;100.00;103195.09;1039225;28;20118;-44
2024/01/11 03:18:12;;;;;;;21.06;12.92;;;;;;;-8.42;100.00;103189.72;1033673;28;20045;-48
2024/01/11 03:18:44;;;;;;;26.62;14.48;;;;;;;-8.44;100.00;103191.50;1034956;28;20115;-47
2024/01/11 03:19:16;;;;;;;22.52;14.62;;;;;;;-8.38;100.00;103184.50;1035139;28;20092;-48
2024/01/11 03:19:48;;;;;;;27.14;16.72;;;;;;;-8.35;100.00;103189.59;1035110;28;20042;-48
2024/01/11 03:20:24;;;;;;;27.54;16.54;;;;;;;-8.41;100.00;103188.00;1038577;28;20050;-49
2024/01/11 03:20:56;;;;;;;25.60;16.52;;;;;;;-8.34;100.00;103191.28;1038947;28;20049;-47
2024/01/11 03:21:27;;;;;;;25.00;14.88;;;;;;;-8.42;100.00;103188.88;1038851;28;20037;-47
2024/01/11 03:22:03;;;;;;;24.20;16.56;;;;;;;-8.60;100.00;103189.31;1038599;28;20064;-48
2024/01/11 03:22:34;;;;;;;26.80;15.58;;;;;;;-8.88;100.00;103189.91;1038951;28;20162;-44
2024/01/11 03:23:06;;;;;;;21.70;13.96;;;;;;;-8.98;100.00;103183.25;1039054;28;20053;-44
2024/01/11 03:23:37;;;;;;;22.12;14.68;;;;;;;-9.02;100.00;103183.38;1038791;28;20076;-47
2024/01/11 03:24:09;;;;;;;28.34;16.40;;;;;;;-8.87;100.00;103188.19;1039285;28;20600;-47
2024/01/11 03:24:41;;;;;;;23.06;16.52;;;;;;;-8.78;100.00;103185.38;1038665;28;20045;-47
2024/01/11 03:25:13;;;;;;;23.70;15.08;;;;;;;-8.69;100.00;103184.34;1039002;28;20057;-44
2024/01/11 03:25:44;;;;;;;27.02;16.78;;;;;;;-8.62;100.00;103186.75;1038765;28;20148;-44
2024/01/11 03:26:17;;;;;;;23.12;16.06;;;;;;;-8.58;100.00;103182.38;1038984;28;20038;-47
2024/01/11 03:26:49;;;;;;;26.94;15.94;;;;;;;-8.56;100.00;103176.28;1039036;28;20065;-48
2024/01/11 03:27:20;;;;;;;22.72;15.06;;;;;;;-8.51;100.00;103174.44;1038705;28;20049;-47
2024/01/11 03:27:52;;;;;;;26.64;16.80;;;;;;;-8.50;100.00;103168.38;1038725;28;20037;-47
2024/01/11 03:28:23;;;;;;;23.76;15.72;;;;;;;-8.49;100.00;103172.69;1038937;28;20037;-48
2024/01/11 03:28:55;;;;;;;23.60;15.54;;;;;;;-8.46;100.00;103166.59;1038055;28;20136;-44
2024/01/11 03:29:27;;;;;;;23.64;15.42;;;;;;;-8.45;100.00;103174.31;1038729;28;20055;-44
2024/01/11 03:29:59;;;;;;;23.90;14.46;;;;;;;-8.43;100.00;103169.09;1038686;28;20558;-42
2024/01/11 03:30:31;;;;;;;25.26;16.14;;;;;;;-8.46;100.00;103170.03;1038511;28;20037;-44
2024/01/11 03:31:03;;;;;;;23.28;16.04;;;;;;;-8.47;100.00;103180.41;1038438;28;20587;-44
2024/01/11 03:31:35;;;;;;;28.14;16.36;;;;;;;-8.49;100.00;103175.28;1038684;28;20042;-48
2024/01/11 03:32:06;;;;;;;22.82;15.30;;;;;;;-8.48;100.00;103176.13;1038705;28;20041;-47
2024/01/11 03:32:41;;;;;;;24.26;14.52;;;;;;;-8.43;100.00;103177.69;1039218;28;20049;-45
2024/01/11 03:33:13;;;;;;;25.22;15.56;;;;;;;-8.37;100.00;103175.84;1038193;28;20052;-48
2024/01/11 03:33:45;;;;;;;23.78;15.32;;;;;;;-8.36;100.00;103178.41;1038836;28;20069;-45
2024/01/11 03:34:17;;;;;;;24.70;16.86;;;;;;;-8.33;100.00;103177.47;1039087;28;20454;-44
2024/01/11 03:34:49;;;;;;;21.66;14.98;;;;;;;-8.37;100.00;103178.44;1038471;28;20045;-44
2024/01/11 03:35:21;;;;;;;24.72;16.36;;;;;;;-8.40;100.00;103179.38;1038816;28;20072;-44
2024/01/11 03:35:52;;;;;;;23.10;16.22;;;;;;;-8.36;100.00;103185.31;1038720;28;20208;-43
2024/01/11 03:36:24;;;;;;;27.18;15.36;;;;;;;-8.43;100.00;103193.22;1038898;28;20159;-44
2024/01/11 03:36:56;;;;;;;27.48;15.26;;;;;;;-8.47;100.00;103195.91;1045079;28;20578;-44
2024/01/11 03:37:28;;;;;;;23.36;15.78;;;;;;;-8.45;100.00;103197.56;1046503;28;20123;-43
2024/01/11 03:38:00;;;;;;;24.92;16.28;;;;;;;-8.41;100.00;103195.75;1045791;28;20198;-47
2024/01/11 03:38:31;;;;;;;23.90;15.28;;;;;;;-8.39;100.00;103198.31;1047668;28;20048;-48
2024/01/11 03:39:03;;;;;;;22.68;14.98;;;;;;;-8.36;100.00;103196.50;1047727;28;20036;-47
2024/01/11 03:39:35;;;;;;;25.66;16.12;;;;;;;-8.36;100.00;103195.63;1047799;28;20105;-50
2024/01/11 03:40:07;;;;;;;22.96;15.10;;;;;;;-8.39;100.00;103204.31;1047421;28;20060;-47
2024/01/11 03:40:38;;;;;;;24.98;14.58;;;;;;;-8.32;100.00;103202.41;1046097;28;20045;-47
2024/01/11 03:41:10;;;;;;;22.02;13.50;;;;;;;-8.35;100.00;103199.91;1047814;28;20044;-48
2024/01/11 03:41:45;;;;;;;24.48;14.86;;;;;;;-8.43;100.00;103202.69;1048003;28;20041;-47
2024/01/11 03:42:17;;;;;;;27.38;14.56;;;;;;;-8.47;100.00;103201.91;1047803;28;20515;-48
2024/01/11 03:42:49;;;;;;;22.00;14.62;;;;;;;-8.38;100.00;103207.75;1048233;28;20170;-48
2024/01/11 03:43:20;;;;;;;22.08;14.96;;;;;;;-8.40;100.00;103201.78;1047609;28;20048;-44
2024/01/11 03:43:52;;;;;;;21.46;15.26;;;;;;;-8.36;100.00;103198.22;1047314;28;20043;-44
2024/01/11 03:44:23;;;;;;;23.60;14.32;;;;;;;-8.39;100.00;103199.16;1047758;28;20298;-44
2024/01/11 03:44:55;;;;;;;22.94;15.10;;;;;;;-8.36;100.00;103198.22;1047824;28;20542;-44
2024/01/11 03:45:27;;;;;;;22.24;14.32;;;;;;;-8.48;100.00;103199.38;1047223;28;20044;-44
2024/01/11 03:45:59;;;;;;;27.32;14.72;;;;;;;-8.56;100.00;103201.25;1047810;28;20045;-44
2024/01/11 03:46:30;;;;;;;34.84;16.66;;;;;;;-8.49;100.00;103203.69;1046124;28;20045;-44
2024/01/11 03:47:02;;;;;;;60.62;17.58;;;;;;;-8.47;100.00;103201.91;1047932;28;20045;-44
2024/01/11 03:47:33;;;;;;;57.90;19.06;;;;;;;-8.50;100.00;103196.78;1047228;28;20040;-44
2024/01/11 03:48:05;;;;;;;65.76;19.18;;;;;;;-8.44;100.00;103198.41;1047463;28;20049;-44
2024/01/11 03:48:37;;;;;;;57.50;15.96;;;;;;;-8.44;100.00;103204.44;1047476;28;20033;-44
2024/01/11 03:49:09;;;;;;;68.22;17.84;;;;;;;-8.49;100.00;103207.97;1047510;28;20103;-44
2024/01/11 03:49:41;;;;;;;73.64;18.56;;;;;;;-8.50;100.00;103207.13;1047598;28;20131;-44
2024/01/11 03:50:13;;;;;;;55.36;18.72;;;;;;;-8.59;100.00;103209.94;1047453;28;20072;-48
2024/01/11 03:50:44;;;;;;;52.84;17.14;;;;;;;-8.51;100.00;103209.75;1047401;28;20041;-47
2024/01/11 03:51:16;;;;;;;47.54;19.72;;;;;;;-8.40;100.00;103209.53;1047110;28;20418;-46
2024/01/11 03:51:48;;;;;;;54.16;17.44;;;;;;;-8.44;100.00;103211.34;1047134;28;20123;-49
2024/01/11 03:52:20;;;;;;;59.62;17.60;;;;;;;-8.54;100.00;103210.69;1047446;28;20085;-47
2024/01/11 03:52:51;;;;;;;65.60;18.32;;;;;;;-8.70;100.00;103209.34;1047779;28;20491;-47
2024/01/11 03:53:23;;;;;;;34.50;17.18;;;;;;;-8.61;100.00;103208.28;1047578;28;20274;-44
2024/01/11 03:53:55;;;;;;;48.88;16.44;;;;;;;-8.54;100.00;103213.25;1047366;28;20122;-44
2024/01/11 03:54:27;;;;;;;33.32;15.50;;;;;;;-8.60;100.00;103215.13;1047818;28;20570;-44
2024/01/11 03:54:58;;;;;;;36.64;16.18;;;;;;;-8.55;100.00;103208.97;1048187;28;20055;-44
2024/01/11 03:55:30;;;;;;;29.54;16.00;;;;;;;-8.58;100.00;103214.22;1047387;28;20052;-43
2024/01/11 03:56:02;;;;;;;35.66;17.46;;;;;;;-8.57;100.00;103210.75;1047565;28;20093;-43
2024/01/11 03:56:38;;;;;;;51.84;17.38;;;;;;;-8.61;100.00;103218.59;1047653;28;20257;-43
2024/01/11 03:57:10;;;;;;;27.80;15.58;;;;;;;-8.73;100.00;103217.16;1047395;28;20406;-43